Randolph Air Force Base Universal City US
ICAO: KRND
IATA: RND
Category: Large
Scheduled Services: No

Elevation: 761 ft
TransAlt. 18000 ft.

Airport Communications:
SAN ANTONIO APP:39.21
SAN ANTONIO APP:124.45
ATIS:27.18
CLNC DEL:33.835
SAN ANTONIO DEP:127.1
GND:119.75
HANGOVER TWR:120.5
HANGOVER GND:124.75
PMSV METRO:23.98
PTD:37.22
TWR:128.25

KRND Zoom In..

If you have problems with the map follow the link
https://www.worldairports.se/pages/airport.php?
ICAO=KRND

Runways:

(A) RW 14L length 8351 ft width 200 ft
ILS 109.90 / hdg 145

(B) RW 14R length 8353 ft width 200 ft
ILS 111.30 / hdg 145

(C) RW 32L length 8353 ft width 200 ft
ILS 111.10 / hdg 325

(D) RW 32R length 8351 ft width 200 ft
ILS 109.30 / hdg 325

Location; KRND
Day. 06 / Time. 01.56 Zulu
* Altimeter: 29.97
* Temperature: 16° c. 60.8°f.
* Wind from: 000° Speed 00 kn.
Dewpoint: 15° c.
Visibility: 10 Statute Miles.
Clouds: Clear (automated report).

KRND 060156Z AUTO 00000KT 10SM CLR 16/15 A2997 RMK AO2 SLP146 T01600147


Wind - Calm.

 
 
jpsmedia worldairports.se 2019   terms of use